Time;durP1;ratioP1;P1;durP2;ratioP2;P2;SDS_P1;SDS_P2;PMS_P1;PMS_P2;Temp;Humidity;BMP_temperature;BMP_pressure;BME280_temperature;BME280_humidity;BME280_pressure;Samples;Min_cycle;Max_cycle;Signal;HPM_P1;HPM_P2
2022/06/28 00:00:03;;;;;;;8.60;6.33;;;;;;;;;;5028591;28;20458;-71
2022/06/28 00:02:31;;;;;;;6.20;5.23;;;;;;;;;;5030030;28;20458;-70
2022/06/28 00:04:58;;;;;;;7.80;6.67;;;;;;;;;;5028893;28;20449;-70
2022/06/28 00:07:27;;;;;;;7.17;6.50;;;;;;;;;;5030870;28;20792;-70
2022/06/28 00:09:55;;;;;;;6.53;5.77;;;;;;;;;;5029724;28;20448;-70
2022/06/28 00:12:23;;;;;;;7.03;6.33;;;;;;;;;;5029572;28;20458;-70
2022/06/28 00:17:38;;;;;;;7.50;5.40;;;;;;;;;;5029264;28;20421;-70
2022/06/28 00:20:07;;;;;;;7.03;5.57;;;;;;;;;;5030305;28;20458;-70
2022/06/28 00:22:36;;;;;;;5.43;4.93;;;;;;;;;;5029614;28;20535;-70
2022/06/28 00:25:04;;;;;;;7.00;5.00;;;;;;;;;;5030406;28;20859;-70
2022/06/28 00:27:35;;;;;;;5.57;5.07;;;;;;;;;;5028878;28;20837;-70
2022/06/28 00:30:02;;;;;;;5.63;5.13;;;;;;;;;;5029446;28;20920;-70
2022/06/28 00:32:30;;;;;;;4.70;4.30;;;;;;;;;;5030301;28;20546;-70
2022/06/28 00:34:58;;;;;;;6.40;5.13;;;;;;;;;;5030583;28;20573;-70
2022/06/28 00:37:25;;;;;;;5.57;4.80;;;;;;;;;;5031969;28;20451;-70
2022/06/28 00:39:54;;;;;;;5.57;4.47;;;;;;;;;;5031905;28;20454;-71
2022/06/28 00:42:22;;;;;;;6.10;4.40;;;;;;;;;;5032327;28;20450;-70
2022/06/28 00:44:57;;;;;;;8.37;5.13;;;;;;;;;;5033611;28;20451;-70
2022/06/28 00:47:28;;;;;;;6.23;4.70;;;;;;;;;;5033620;28;20745;-70
2022/06/28 00:49:57;;;;;;;4.70;4.30;;;;;;;;;;5032631;28;20456;-70
2022/06/28 00:52:25;;;;;;;4.40;3.97;;;;;;;;;;5033021;28;20712;-70
2022/06/28 00:54:54;;;;;;;6.70;5.77;;;;;;;;;;5032498;28;20486;-70
2022/06/28 00:57:25;;;;;;;4.23;3.80;;;;;;;;;;5032893;28;20459;-70
2022/06/28 00:59:53;;;;;;;9.20;5.10;;;;;;;;;;5032889;28;20442;-70
2022/06/28 01:02:21;;;;;;;5.20;4.10;;;;;;;;;;5027043;28;20530;-70
2022/06/28 01:04:48;;;;;;;5.43;4.87;;;;;;;;;;5013969;28;20952;-71
2022/06/28 01:07:16;;;;;;;4.93;3.93;;;;;;;;;;5014894;28;20855;-70
2022/06/28 01:09:44;;;;;;;6.83;3.70;;;;;;;;;;5013976;28;20711;-70
2022/06/28 01:12:15;;;;;;;4.90;3.30;;;;;;;;;;5018099;28;20459;-70
2022/06/28 01:14:45;;;;;;;4.17;3.07;;;;;;;;;;5014030;28;20491;-70
2022/06/28 01:17:13;;;;;;;7.03;3.70;;;;;;;;;;5014707;28;20463;-71
2022/06/28 01:19:41;;;;;;;4.27;3.87;;;;;;;;;;5013950;28;20455;-70
2022/06/28 01:22:12;;;;;;;4.97;3.30;;;;;;;;;;5024274;28;20561;-71
2022/06/28 01:24:41;;;;;;;7.13;3.57;;;;;;;;;;5033962;28;20519;-70
2022/06/28 01:27:09;;;;;;;4.67;3.80;;;;;;;;;;5033531;28;20458;-70
2022/06/28 01:29:37;;;;;;;6.67;3.57;;;;;;;;;;5035236;28;20462;-70
2022/06/28 01:32:05;;;;;;;6.20;4.00;;;;;;;;;;5032421;28;20458;-70
2022/06/28 01:34:33;;;;;;;6.30;3.47;;;;;;;;;;5034411;28;20494;-70
2022/06/28 01:37:01;;;;;;;4.43;3.67;;;;;;;;;;5025102;28;20459;-70
2022/06/28 01:39:29;;;;;;;4.90;3.10;;;;;;;;;;5014194;28;20451;-70
2022/06/28 01:41:58;;;;;;;4.90;3.53;;;;;;;;;;5014430;28;20527;-70
2022/06/28 01:44:26;;;;;;;4.10;3.43;;;;;;;;;;5013314;28;20562;-70
2022/06/28 01:46:54;;;;;;;4.27;3.87;;;;;;;;;;5013517;28;20530;-70
2022/06/28 01:49:21;;;;;;;4.10;3.40;;;;;;;;;;5012694;28;20455;-71
2022/06/28 01:51:49;;;;;;;5.10;3.13;;;;;;;;;;5013572;28;20444;-71
2022/06/28 01:54:19;;;;;;;7.50;3.50;;;;;;;;;;5013864;28;20483;-71
2022/06/28 01:56:47;;;;;;;3.90;3.10;;;;;;;;;;5014348;28;20542;-70
2022/06/28 01:59:17;;;;;;;4.90;3.03;;;;;;;;;;5014361;28;20463;-70
2022/06/28 02:01:44;;;;;;;5.63;5.13;;;;;;;;;;5020070;27;20519;-70
2022/06/28 02:04:19;;;;;;;3.73;2.90;;;;;;;;;;5033865;28;20553;-70
2022/06/28 02:06:47;;;;;;;4.83;3.63;;;;;;;;;;5032257;28;20734;-70
2022/06/28 02:09:15;;;;;;;4.57;3.50;;;;;;;;;;5033341;28;21147;-70
2022/06/28 02:11:45;;;;;;;5.20;4.10;;;;;;;;;;5032624;28;20908;-70
2022/06/28 02:14:13;;;;;;;4.80;3.50;;;;;;;;;;5032945;28;20558;-70
2022/06/28 02:16:42;;;;;;;4.47;3.40;;;;;;;;;;5032825;28;20936;-70
2022/06/28 02:19:10;;;;;;;4.60;3.17;;;;;;;;;;5032690;28;20463;-70
2022/06/28 02:21:37;;;;;;;4.00;2.93;;;;;;;;;;5032626;28;20936;-70
2022/06/28 02:24:08;;;;;;;4.47;4.07;;;;;;;;;;5017819;28;20523;-70
2022/06/28 02:26:36;;;;;;;4.50;3.60;;;;;;;;;;5013078;28;20455;-70
2022/06/28 02:29:05;;;;;;;5.87;3.50;;;;;;;;;;5012702;28;20538;-70
2022/06/28 02:31:33;;;;;;;5.53;3.60;;;;;;;;;;5012321;28;20463;-70
2022/06/28 02:34:02;;;;;;;5.00;3.33;;;;;;;;;;5013281;28;20531;-70
2022/06/28 02:42:01;;;;;;;5.40;3.63;;;;;;;;;;5012503;28;20431;-71
2022/06/28 02:44:29;;;;;;;5.40;4.30;;;;;;;;;;5012469;28;20444;-71
2022/06/28 02:46:57;;;;;;;4.00;3.40;;;;;;;;;;5012322;28;20463;-71
2022/06/28 02:49:26;;;;;;;6.07;3.40;;;;;;;;;;5012486;28;20455;-71
2022/06/28 02:51:53;;;;;;;6.60;4.23;;;;;;;;;;5012404;28;20964;-71
2022/06/28 02:54:21;;;;;;;6.60;4.03;;;;;;;;;;5015911;28;20479;-70
2022/06/28 02:56:49;;;;;;;5.60;4.00;;;;;;;;;;5031425;28;20462;-70
2022/06/28 02:59:17;;;;;;;6.33;4.43;;;;;;;;;;5031380;28;20546;-70
2022/06/28 03:01:44;;;;;;;6.27;4.40;;;;;;;;;;5031305;28;20454;-70
2022/06/28 03:04:21;;;;;;;6.50;4.00;;;;;;;;;;5031965;28;20952;-70
2022/06/28 03:06:50;;;;;;;5.20;4.00;;;;;;;;;;5031788;28;20519;-70
2022/06/28 03:09:18;;;;;;;5.10;4.10;;;;;;;;;;5031974;28;20466;-70
2022/06/28 03:11:45;;;;;;;4.50;4.10;;;;;;;;;;5031565;28;20523;-70
2022/06/28 03:14:13;;;;;;;6.23;3.77;;;;;;;;;;5031668;28;20466;-69
2022/06/28 03:16:41;;;;;;;4.10;3.50;;;;;;;;;;5032371;28;20473;-71
2022/06/28 03:19:09;;;;;;;6.03;4.13;;;;;;;;;;5032315;28;20899;-71
2022/06/28 03:21:36;;;;;;;6.23;4.80;;;;;;;;;;5032186;28;20451;-71
2022/06/28 03:24:06;;;;;;;6.43;4.23;;;;;;;;;;5036268;27;20904;-70
2022/06/28 03:26:34;;;;;;;9.20;4.90;;;;;;;;;;5035664;27;20459;-71
2022/06/28 03:29:01;;;;;;;5.30;4.80;;;;;;;;;;5031691;28;20455;-71
2022/06/28 03:31:29;;;;;;;7.73;4.50;;;;;;;;;;5031385;28;20549;-71
2022/06/28 03:33:56;;;;;;;4.90;4.23;;;;;;;;;;5031297;28;20480;-71
2022/06/28 03:36:24;;;;;;;5.80;4.90;;;;;;;;;;5031462;28;20482;-70
2022/06/28 03:38:55;;;;;;;6.07;4.53;;;;;;;;;;5031467;28;20523;-72
2022/06/28 03:41:24;;;;;;;5.70;4.63;;;;;;;;;;5030962;28;20581;-70
2022/06/28 03:43:52;;;;;;;5.47;4.70;;;;;;;;;;5031632;28;20454;-71
2022/06/28 03:46:20;;;;;;;5.80;5.00;;;;;;;;;;5030354;28;20807;-70
2022/06/28 03:48:49;;;;;;;7.40;5.13;;;;;;;;;;5031033;28;20446;-70
2022/06/28 03:51:17;;;;;;;9.10;5.20;;;;;;;;;;5030274;28;20733;-70
2022/06/28 03:53:44;;;;;;;7.90;6.63;;;;;;;;;;5030489;28;20541;-69
2022/06/28 03:56:12;;;;;;;8.00;6.60;;;;;;;;;;5030498;28;20489;-71
2022/06/28 03:58:42;;;;;;;6.40;5.80;;;;;;;;;;5030743;28;20455;-71
2022/06/28 04:01:10;;;;;;;9.00;6.20;;;;;;;;;;5031645;28;20513;-71
2022/06/28 04:03:37;;;;;;;8.23;5.50;;;;;;;;;;5031125;28;20457;-71
2022/06/28 04:06:05;;;;;;;7.73;6.17;;;;;;;;;;5030951;28;20462;-70
2022/06/28 04:08:33;;;;;;;6.90;5.93;;;;;;;;;;5031070;28;20518;-70
2022/06/28 04:11:16;;;;;;;7.23;6.33;;;;;;;;;;5029014;28;20481;-70
2022/06/28 04:13:48;;;;;;;8.27;6.43;;;;;;;;;;5033405;28;20484;-70
2022/06/28 04:16:16;;;;;;;6.50;5.83;;;;;;;;;;5034031;28;20482;-70
2022/06/28 04:18:46;;;;;;;6.10;5.50;;;;;;;;;;5032560;28;20548;-70
2022/06/28 04:21:15;;;;;;;7.00;6.30;;;;;;;;;;5034474;28;20458;-70
2022/06/28 04:23:43;;;;;;;8.43;6.30;;;;;;;;;;5017093;28;20760;-70
2022/06/28 04:26:11;;;;;;;7.50;6.73;;;;;;;;;;5014270;28;20538;-70
2022/06/28 04:28:39;;;;;;;7.00;6.00;;;;;;;;;;5013560;28;20586;-70
2022/06/28 04:31:08;;;;;;;10.93;6.03;;;;;;;;;;5014272;28;20467;-70
2022/06/28 04:33:37;;;;;;;7.80;6.33;;;;;;;;;;5013409;28;20693;-70
2022/06/28 04:36:05;;;;;;;8.70;6.17;;;;;;;;;;5012623;28;20581;-70
2022/06/28 04:38:33;;;;;;;7.20;6.50;;;;;;;;;;5013727;28;20466;-70
2022/06/28 04:41:00;;;;;;;8.33;7.37;;;;;;;;;;5013729;28;20454;-70
2022/06/28 04:43:28;;;;;;;8.47;7.40;;;;;;;;;;5012638;28;20466;-71
2022/06/28 04:45:56;;;;;;;9.80;7.70;;;;;;;;;;5012932;28;20467;-71
2022/06/28 04:48:25;;;;;;;9.43;8.53;;;;;;;;;;5013126;28;20509;-70
2022/06/28 04:50:53;;;;;;;8.60;7.17;;;;;;;;;;5012028;28;20456;-70
2022/06/28 04:53:21;;;;;;;9.27;7.80;;;;;;;;;;5012765;28;20523;-70
2022/06/28 04:55:49;;;;;;;9.43;8.37;;;;;;;;;;5013614;28;20495;-70
2022/06/28 04:58:17;;;;;;;10.10;8.73;;;;;;;;;;5011883;28;20451;-70
2022/06/28 05:00:44;;;;;;;12.07;9.53;;;;;;;;;;5012164;28;20545;-70
2022/06/28 05:03:12;;;;;;;9.47;8.30;;;;;;;;;;5012904;28;20516;-70
2022/06/28 05:05:42;;;;;;;13.17;8.57;;;;;;;;;;5012561;28;20567;-70
2022/06/28 05:08:09;;;;;;;11.30;8.13;;;;;;;;;;5013510;28;20466;-71
2022/06/28 05:10:43;;;;;;;11.30;9.00;;;;;;;;;;5012344;28;20455;-70
2022/06/28 05:13:11;;;;;;;13.13;9.30;;;;;;;;;;5013073;28;20499;-71
2022/06/28 05:15:39;;;;;;;11.07;8.53;;;;;;;;;;5012802;28;20490;-70
2022/06/28 05:18:06;;;;;;;11.00;8.60;;;;;;;;;;5012789;28;20539;-71
2022/06/28 05:20:34;;;;;;;10.73;8.90;;;;;;;;;;5028743;28;20442;-71
2022/06/28 05:23:03;;;;;;;12.30;9.77;;;;;;;;;;5028210;28;20518;-70
2022/06/28 05:25:31;;;;;;;11.37;9.93;;;;;;;;;;5029817;28;20847;-71
2022/06/28 05:27:59;;;;;;;12.30;8.20;;;;;;;;;;5032201;28;20545;-71
2022/06/28 05:30:27;;;;;;;10.80;9.70;;;;;;;;;;5031476;28;20447;-70
2022/06/28 05:32:55;;;;;;;12.63;10.77;;;;;;;;;;5027084;28;20474;-71
2022/06/28 05:35:22;;;;;;;15.80;11.03;;;;;;;;;;5025521;28;20731;-71
2022/06/28 05:37:50;;;;;;;11.37;10.17;;;;;;;;;;5027452;28;20453;-70
2022/06/28 05:40:19;;;;;;;12.27;10.93;;;;;;;;;;5027438;28;20912;-71
2022/06/28 05:42:47;;;;;;;14.53;10.80;;;;;;;;;;5028902;28;20890;-71
2022/06/28 05:45:15;;;;;;;14.43;11.13;;;;;;;;;;5030307;28;20454;-70
2022/06/28 05:47:43;;;;;;;13.20;11.07;;;;;;;;;;5029957;28;20892;-71
2022/06/28 05:50:14;;;;;;;13.40;10.70;;;;;;;;;;5008778;28;20874;-70
2022/06/28 05:52:41;;;;;;;12.27;11.03;;;;;;;;;;5010287;28;20466;-70
2022/06/28 05:55:10;;;;;;;12.40;10.00;;;;;;;;;;5009086;28;20578;-70
2022/06/28 05:57:39;;;;;;;10.00;8.67;;;;;;;;;;5009786;28;20475;-70
2022/06/28 06:00:07;;;;;;;14.33;8.60;;;;;;;;;;5008393;28;20558;-70
2022/06/28 06:02:35;;;;;;;12.10;8.87;;;;;;;;;;5008379;28;20463;-71
2022/06/28 06:05:03;;;;;;;10.67;9.63;;;;;;;;;;5009671;28;20455;-70
2022/06/28 06:07:31;;;;;;;11.93;10.47;;;;;;;;;;5009711;28;20464;-70
2022/06/28 06:09:59;;;;;;;11.53;10.33;;;;;;;;;;5009717;28;20448;-70
2022/06/28 06:12:27;;;;;;;12.10;10.27;;;;;;;;;;5010360;28;20493;-70
2022/06/28 06:14:58;;;;;;;11.00;9.90;;;;;;;;;;5008928;28;20957;-70
2022/06/28 06:17:25;;;;;;;10.93;8.70;;;;;;;;;;5009916;28;20460;-70
2022/06/28 06:19:53;;;;;;;9.40;8.23;;;;;;;;;;5009624;28;20871;-70
2022/06/28 06:22:21;;;;;;;10.83;9.70;;;;;;;;;;5009307;28;20753;-70
2022/06/28 06:24:48;;;;;;;11.77;8.33;;;;;;;;;;5009767;28;20459;-70
2022/06/28 06:27:18;;;;;;;10.17;8.90;;;;;;;;;;5010179;28;20454;-70
2022/06/28 06:29:46;;;;;;;9.43;8.53;;;;;;;;;;5008705;28;21024;-71
2022/06/28 06:32:15;;;;;;;8.53;7.57;;;;;;;;;;5007656;28;20479;-72
2022/06/28 06:34:45;;;;;;;9.10;8.20;;;;;;;;;;5009026;28;20458;-72
2022/06/28 06:37:14;;;;;;;9.43;7.63;;;;;;;;;;5009406;28;20487;-71
2022/06/28 06:39:41;;;;;;;8.83;7.93;;;;;;;;;;5031765;28;20945;-71
2022/06/28 06:42:10;;;;;;;7.60;6.80;;;;;;;;;;5048764;28;20497;-71
2022/06/28 06:44:37;;;;;;;8.23;6.80;;;;;;;;;;5048809;28;20453;-71
2022/06/28 06:47:06;;;;;;;7.63;6.50;;;;;;;;;;5032793;28;20467;-72
2022/06/28 06:49:35;;;;;;;8.37;7.47;;;;;;;;;;5031077;27;20461;-72
2022/06/28 06:52:06;;;;;;;8.50;6.80;;;;;;;;;;5026561;28;20774;-72
2022/06/28 06:54:37;;;;;;;9.67;6.50;;;;;;;;;;5017352;28;20883;-72
2022/06/28 06:57:05;;;;;;;13.60;7.17;;;;;;;;;;5031514;28;20482;-71
2022/06/28 06:59:32;;;;;;;40.13;9.87;;;;;;;;;;5017169;28;20499;-72
2022/06/28 07:02:04;;;;;;;8.50;6.27;;;;;;;;;;5012712;28;20466;-71
2022/06/28 07:04:31;;;;;;;7.23;5.67;;;;;;;;;;5010934;28;20543;-70
2022/06/28 07:07:01;;;;;;;9.43;5.63;;;;;;;;;;5015855;28;20868;-71
2022/06/28 07:09:31;;;;;;;8.57;6.40;;;;;;;;;;5020860;28;20450;-72
2022/06/28 07:12:02;;;;;;;7.07;6.40;;;;;;;;;;5020862;28;20453;-71
2022/06/28 07:14:32;;;;;;;7.73;5.87;;;;;;;;;;5028798;28;20450;-73
2022/06/28 07:17:01;;;;;;;7.07;5.50;;;;;;;;;;5027849;28;20585;-72
2022/06/28 07:19:29;;;;;;;9.37;6.40;;;;;;;;;;5028894;28;20477;-72
2022/06/28 07:21:56;;;;;;;8.53;5.23;;;;;;;;;;5028227;28;20461;-72
2022/06/28 07:24:26;;;;;;;13.77;6.27;;;;;;;;;;5027998;28;20465;-72
2022/06/28 07:26:54;;;;;;;9.43;5.73;;;;;;;;;;5028511;28;20577;-72
2022/06/28 07:29:25;;;;;;;7.30;6.50;;;;;;;;;;5029709;28;20924;-73
2022/06/28 07:32:05;;;;;;;5.67;4.37;;;;;;;;;;5018656;28;20470;-72
2022/06/28 07:34:35;;;;;;;6.23;4.33;;;;;;;;;;5012250;28;20702;-72
2022/06/28 07:37:02;;;;;;;5.80;5.10;;;;;;;;;;5025285;28;20925;-71
2022/06/28 07:39:35;;;;;;;5.17;3.50;;;;;;;;;;5009106;28;20455;-72
2022/06/28 07:42:02;;;;;;;4.60;3.13;;;;;;;;;;5011102;28;20838;-72
2022/06/28 07:44:38;;;;;;;4.50;3.10;;;;;;;;;;5008531;28;20509;-70
2022/06/28 07:47:12;;;;;;;5.30;4.10;;;;;;;;;;5007258;28;20461;-72
2022/06/28 07:52:38;;;;;;;5.20;3.70;;;;;;;;;;5011176;28;20441;-71
2022/06/28 07:55:11;;;;;;;3.63;2.33;;;;;;;;;;5019496;28;20563;-71
2022/06/28 07:57:40;;;;;;;3.50;2.70;;;;;;;;;;5029232;28;20490;-71
2022/06/28 08:00:10;;;;;;;3.10;2.30;;;;;;;;;;5039953;28;20466;-72
2022/06/28 08:02:38;;;;;;;3.50;2.70;;;;;;;;;;5024968;28;20762;-71
2022/06/28 08:05:08;;;;;;;4.07;2.87;;;;;;;;;;5011610;28;20462;-71
2022/06/28 08:07:36;;;;;;;3.77;2.70;;;;;;;;;;5008488;28;20458;-70
2022/06/28 08:10:04;;;;;;;7.00;3.33;;;;;;;;;;5021190;28;20450;-72
2022/06/28 08:12:38;;;;;;;6.57;3.03;;;;;;;;;;5022863;28;20478;-72
2022/06/28 08:15:07;;;;;;;3.97;2.93;;;;;;;;;;5028985;28;20538;-71
2022/06/28 08:17:40;;;;;;;4.20;2.90;;;;;;;;;;5026893;28;20482;-71
2022/06/28 08:20:11;;;;;;;4.47;2.77;;;;;;;;;;5032339;28;20521;-72
2022/06/28 08:22:39;;;;;;;5.43;2.90;;;;;;;;;;5027301;28;20461;-72
2022/06/28 08:25:08;;;;;;;5.10;2.53;;;;;;;;;;5078489;28;20454;-72
2022/06/28 08:27:37;;;;;;;2.90;2.10;;;;;;;;;;5132552;28;20454;-72
2022/06/28 08:30:06;;;;;;;3.17;2.10;;;;;;;;;;5053993;28;20473;-71
2022/06/28 08:32:37;;;;;;;4.20;2.37;;;;;;;;;;5042199;28;20500;-71
2022/06/28 08:35:06;;;;;;;9.03;3.20;;;;;;;;;;5030590;28;20454;-71
2022/06/28 08:37:35;;;;;;;3.90;2.43;;;;;;;;;;5026457;28;20790;-71
2022/06/28 08:40:05;;;;;;;1.90;1.23;;;;;;;;;;5021493;28;21283;-70
2022/06/28 08:45:28;;;;;;;5.70;1.90;;;;;;;;;;5029454;28;20493;-69
2022/06/28 08:47:57;;;;;;;3.50;1.67;;;;;;;;;;5022717;28;20558;-70
2022/06/28 08:50:44;;;;;;;4.50;1.60;;;;;;;;;;5020147;28;20750;-71
2022/06/28 08:53:12;;;;;;;3.50;1.90;;;;;;;;;;5059391;28;20843;-71
2022/06/28 08:55:42;;;;;;;4.00;1.60;;;;;;;;;;5029994;28;20538;-71
2022/06/28 08:58:13;;;;;;;2.93;2.17;;;;;;;;;;5035876;28;20918;-70
2022/06/28 09:00:46;;;;;;;4.93;1.57;;;;;;;;;;5030041;28;20483;-71
2022/06/28 09:03:15;;;;;;;4.40;2.90;;;;;;;;;;5031721;28;20570;-70
2022/06/28 09:05:43;;;;;;;4.93;1.73;;;;;;;;;;5030113;28;20698;-71
2022/06/28 09:08:11;;;;;;;3.40;1.63;;;;;;;;;;5023303;28;20485;-71
2022/06/28 09:10:42;;;;;;;4.13;1.70;;;;;;;;;;5026418;27;20472;-71
2022/06/28 09:13:16;;;;;;;5.03;1.80;;;;;;;;;;5026440;28;20463;-72
2022/06/28 09:15:49;;;;;;;4.30;1.20;;;;;;;;;;5030951;28;20477;-73
2022/06/28 09:18:23;;;;;;;3.73;1.53;;;;;;;;;;5020495;27;20829;-73
2022/06/28 09:21:29;;;;;;;2.97;1.23;;;;;;;;;;5035505;28;20459;-73
2022/06/28 09:24:02;;;;;;;2.40;1.10;;;;;;;;;;5081717;28;20451;-72
2022/06/28 09:26:30;;;;;;;2.37;1.20;;;;;;;;;;5042371;28;20463;-72
2022/06/28 09:28:58;;;;;;;2.23;1.13;;;;;;;;;;5031965;28;20905;-73
2022/06/28 09:31:33;;;;;;;3.80;1.83;;;;;;;;;;5065917;27;20782;-71
2022/06/28 09:34:07;;;;;;;3.00;1.30;;;;;;;;;;5032189;28;21023;-72
2022/06/28 09:36:37;;;;;;;6.70;2.63;;;;;;;;;;5046836;28;20569;-72
2022/06/28 09:39:12;;;;;;;2.63;1.00;;;;;;;;;;5049097;28;20540;-71
2022/06/28 09:41:45;;;;;;;3.27;1.30;;;;;;;;;;5051046;28;20457;-72
2022/06/28 09:44:32;;;;;;;4.20;1.30;;;;;;;;;;5034946;28;20902;-70
2022/06/28 09:47:21;;;;;;;5.90;1.47;;;;;;;;;;5031581;28;20457;-73
2022/06/28 09:49:56;;;;;;;3.73;2.23;;;;;;;;;;5021698;28;20524;-73
2022/06/28 09:52:28;;;;;;;3.10;1.10;;;;;;;;;;5011604;28;20459;-72
2022/06/28 09:55:04;;;;;;;4.33;1.30;;;;;;;;;;5014717;28;20494;-72
2022/06/28 09:57:37;;;;;;;3.70;1.50;;;;;;;;;;5015502;28;20487;-72
2022/06/28 10:00:05;;;;;;;5.43;1.80;;;;;;;;;;5013835;28;20454;-72
2022/06/28 10:02:45;;;;;;;5.47;1.50;;;;;;;;;;5085266;27;20465;-70
2022/06/28 10:05:28;;;;;;;4.87;1.77;;;;;;;;;;5110906;27;20986;-73
2022/06/28 10:08:03;;;;;;;4.13;1.37;;;;;;;;;;5030341;28;20454;-72
2022/06/28 10:10:31;;;;;;;2.67;1.30;;;;;;;;;;5008883;28;20459;-72
2022/06/28 10:15:56;;;;;;;3.03;1.17;;;;;;;;;;5014174;28;20451;-71
2022/06/28 10:18:28;;;;;;;5.73;1.47;;;;;;;;;;5014651;28;20475;-71
2022/06/28 10:21:00;;;;;;;3.20;1.57;;;;;;;;;;5019570;28;20520;-72
2022/06/28 10:23:29;;;;;;;3.20;1.20;;;;;;;;;;5018945;28;20482;-72
2022/06/28 10:26:08;;;;;;;4.50;1.70;;;;;;;;;;5026358;27;20630;-73
2022/06/28 10:28:45;;;;;;;3.53;1.27;;;;;;;;;;5013292;28;20490;-73
2022/06/28 10:31:32;;;;;;;5.30;1.17;;;;;;;;;;5014860;28;20555;-72
2022/06/28 10:34:04;;;;;;;2.00;0.80;;;;;;;;;;5030796;28;20470;-72
2022/06/28 10:36:42;;;;;;;3.17;1.10;;;;;;;;;;5027051;28;20460;-72
2022/06/28 10:39:19;;;;;;;2.90;0.90;;;;;;;;;;5029784;28;21097;-71
2022/06/28 10:41:47;;;;;;;4.33;1.63;;;;;;;;;;5029340;28;20450;-72
2022/06/28 10:44:16;;;;;;;2.67;1.27;;;;;;;;;;5021235;27;20931;-71
2022/06/28 10:46:49;;;;;;;3.70;1.47;;;;;;;;;;5009548;28;20471;-72
2022/06/28 10:49:22;;;;;;;2.60;1.50;;;;;;;;;;5013129;28;20890;-72
2022/06/28 10:52:08;;;;;;;5.47;1.50;;;;;;;;;;5010010;28;20554;-72
2022/06/28 10:55:17;;;;;;;2.13;0.80;;;;;;;;;;5011810;28;20450;-72
2022/06/28 10:57:48;;;;;;;2.60;1.00;;;;;;;;;;5007481;28;20500;-71
2022/06/28 11:00:34;;;;;;;8.77;1.20;;;;;;;;;;5071324;28;20997;-72
2022/06/28 11:03:03;;;;;;;2.20;1.13;;;;;;;;;;5111483;27;20449;-73
2022/06/28 11:05:59;;;;;;;3.60;1.00;;;;;;;;;;5045593;27;20454;-72
2022/06/28 11:08:44;;;;;;;2.40;1.00;;;;;;;;;;5028275;28;20544;-73
2022/06/28 11:11:12;;;;;;;3.07;1.20;;;;;;;;;;5028926;28;20860;-74
2022/06/28 11:13:41;;;;;;;1.80;0.93;;;;;;;;;;5029882;28;20486;-72
2022/06/28 11:16:12;;;;;;;5.33;3.27;;;;;;;;;;5028642;28;20461;-73
2022/06/28 11:18:44;;;;;;;3.00;1.03;;;;;;;;;;5028705;28;20521;-73
2022/06/28 11:21:15;;;;;;;7.83;2.10;;;;;;;;;;5024784;28;20945;-73
2022/06/28 11:23:43;;;;;;;3.30;1.10;;;;;;;;;;5037733;28;20503;-73
2022/06/28 11:29:04;;;;;;;3.93;1.47;;;;;;;;;;5041243;28;20486;-73
2022/06/28 11:31:32;;;;;;;2.53;1.10;;;;;;;;;;5057942;27;20469;-72
2022/06/28 11:34:01;;;;;;;5.20;1.50;;;;;;;;;;5092678;27;20459;-73
2022/06/28 11:36:47;;;;;;;3.43;2.70;;;;;;;;;;5028909;28;20453;-72
2022/06/28 11:39:21;;;;;;;2.47;1.07;;;;;;;;;;5030758;28;20482;-73
2022/06/28 11:41:49;;;;;;;3.10;1.40;;;;;;;;;;5044386;28;20845;-73
2022/06/28 11:44:19;;;;;;;2.40;1.30;;;;;;;;;;5029775;27;20472;-73
2022/06/28 11:46:51;;;;;;;2.37;1.10;;;;;;;;;;5025557;27;20838;-74
2022/06/28 11:50:04;;;;;;;2.90;1.10;;;;;;;;;;5017218;28;20464;-73
2022/06/28 11:53:04;;;;;;;4.90;1.33;;;;;;;;;;4985728;28;20494;-73
2022/06/28 11:55:41;;;;;;;2.10;0.90;;;;;;;;;;5031355;28;20578;-72
2022/06/28 11:58:21;;;;;;;1.80;1.10;;;;;;;;;;5008185;28;20497;-73
2022/06/28 12:01:08;;;;;;;2.33;1.00;;;;;;;;;;5016801;28;21060;-72
2022/06/28 12:03:38;;;;;;;3.73;1.40;;;;;;;;;;5016903;28;20907;-72
2022/06/28 12:06:05;;;;;;;3.27;1.00;;;;;;;;;;5006147;28;20493;-72
2022/06/28 12:08:44;;;;;;;1.80;1.03;;;;;;;;;;5096125;28;20881;-72
2022/06/28 12:11:27;;;;;;;3.90;1.40;;;;;;;;;;5030075;28;20703;-71
2022/06/28 12:14:12;;;;;;;10.53;1.67;;;;;;;;;;5026538;28;20461;-69
2022/06/28 12:16:41;;;;;;;3.10;1.47;;;;;;;;;;5015472;28;20812;-70
2022/06/28 12:19:14;;;;;;;2.20;1.20;;;;;;;;;;5022487;28;20560;-67
2022/06/28 12:21:56;;;;;;;6.20;1.43;;;;;;;;;;5026523;28;20488;-70
2022/06/28 12:24:38;;;;;;;2.17;1.40;;;;;;;;;;5021955;28;20496;-71
2022/06/28 12:27:06;;;;;;;2.93;1.57;;;;;;;;;;5018645;28;20876;-68
2022/06/28 12:29:37;;;;;;;3.30;1.80;;;;;;;;;;5014450;28;20466;-72
2022/06/28 12:32:16;;;;;;;4.00;1.90;;;;;;;;;;5019452;28;20942;-71
2022/06/28 12:34:44;;;;;;;3.70;1.33;;;;;;;;;;5058295;27;20489;-71
2022/06/28 12:37:18;;;;;;;3.83;1.53;;;;;;;;;;5017498;28;20486;-71
2022/06/28 12:39:51;;;;;;;4.53;1.50;;;;;;;;;;5013591;28;20459;-72
2022/06/28 12:42:22;;;;;;;5.10;1.80;;;;;;;;;;5033264;27;20878;-72
2022/06/28 12:44:56;;;;;;;3.07;1.53;;;;;;;;;;5013169;28;20475;-72
2022/06/28 12:47:29;;;;;;;6.73;2.17;;;;;;;;;;5020208;28;20461;-71
2022/06/28 12:50:00;;;;;;;2.73;1.73;;;;;;;;;;5023838;27;20503;-71
2022/06/28 12:52:35;;;;;;;3.97;1.63;;;;;;;;;;5014477;27;20487;-72
2022/06/28 12:55:06;;;;;;;3.87;3.07;;;;;;;;;;5011035;28;20843;-70
2022/06/28 12:57:34;;;;;;;4.97;2.00;;;;;;;;;;5018125;28;21035;-71
2022/06/28 13:00:07;;;;;;;2.70;1.50;;;;;;;;;;5011106;28;20458;-71
2022/06/28 13:02:35;;;;;;;2.47;1.17;;;;;;;;;;5017097;28;20493;-72
2022/06/28 13:05:03;;;;;;;5.17;2.30;;;;;;;;;;5013310;28;20512;-72
2022/06/28 13:07:31;;;;;;;3.40;1.33;;;;;;;;;;5028330;28;20515;-72
2022/06/28 13:10:02;;;;;;;4.57;1.50;;;;;;;;;;5033310;27;20746;-70
2022/06/28 13:12:30;;;;;;;3.40;2.20;;;;;;;;;;5023774;28;20471;-71
2022/06/28 13:14:57;;;;;;;3.30;1.70;;;;;;;;;;5026013;27;20559;-70
2022/06/28 13:17:27;;;;;;;5.57;2.70;;;;;;;;;;5023193;28;20561;-70
2022/06/28 13:19:55;;;;;;;4.87;3.60;;;;;;;;;;5019127;28;20475;-70
2022/06/28 13:22:23;;;;;;;2.73;1.20;;;;;;;;;;5021169;28;20900;-71
2022/06/28 13:24:55;;;;;;;3.77;2.07;;;;;;;;;;5015624;28;20968;-71
2022/06/28 13:27:23;;;;;;;2.33;1.33;;;;;;;;;;5022981;28;20876;-71
2022/06/28 13:30:00;;;;;;;3.63;1.50;;;;;;;;;;5026546;28;20524;-71
2022/06/28 13:32:29;;;;;;;2.43;1.23;;;;;;;;;;5011509;28;20753;-73
2022/06/28 13:34:57;;;;;;;2.50;1.30;;;;;;;;;;5041761;28;20574;-72
2022/06/28 13:37:29;;;;;;;3.47;1.60;;;;;;;;;;5048275;28;21047;-72
2022/06/28 13:39:56;;;;;;;4.53;1.40;;;;;;;;;;5029630;28;20477;-72
2022/06/28 13:42:25;;;;;;;1.90;1.03;;;;;;;;;;5029147;28;20479;-72
2022/06/28 13:44:54;;;;;;;6.43;1.20;;;;;;;;;;5022984;28;20575;-72
2022/06/28 13:47:24;;;;;;;4.43;1.97;;;;;;;;;;5029633;28;20612;-71
2022/06/28 13:49:54;;;;;;;2.87;1.50;;;;;;;;;;5020206;28;21098;-72
2022/06/28 13:52:24;;;;;;;2.20;1.40;;;;;;;;;;5013087;28;20470;-71
2022/06/28 13:54:51;;;;;;;2.73;1.43;;;;;;;;;;5023592;28;20459;-71
2022/06/28 13:57:25;;;;;;;4.47;1.40;;;;;;;;;;5029395;28;20541;-71
2022/06/28 13:59:55;;;;;;;2.80;1.33;;;;;;;;;;5016212;27;21127;-72
2022/06/28 14:02:27;;;;;;;2.53;1.30;;;;;;;;;;5051216;27;21081;-71
2022/06/28 14:04:56;;;;;;;2.87;1.00;;;;;;;;;;5034461;28;20816;-71
2022/06/28 14:07:26;;;;;;;2.87;1.07;;;;;;;;;;5009362;28;21027;-72
2022/06/28 14:09:54;;;;;;;3.40;1.60;;;;;;;;;;5011048;28;20463;-73
2022/06/28 14:12:24;;;;;;;2.67;1.20;;;;;;;;;;5027602;28;20992;-72
2022/06/28 14:14:53;;;;;;;3.60;1.50;;;;;;;;;;5069318;27;20464;-71
2022/06/28 14:17:21;;;;;;;3.30;2.07;;;;;;;;;;5047408;27;20446;-72
2022/06/28 14:19:51;;;;;;;2.67;1.40;;;;;;;;;;5026594;28;20974;-72
2022/06/28 14:22:22;;;;;;;2.53;1.10;;;;;;;;;;5028436;28;20514;-72
2022/06/28 14:24:53;;;;;;;2.07;1.30;;;;;;;;;;5011735;28;20470;-72
2022/06/28 14:27:21;;;;;;;2.77;1.07;;;;;;;;;;5041796;28;20462;-72
2022/06/28 14:30:15;;;;;;;4.30;1.50;;;;;;;;;;5036427;28;20859;-74
2022/06/28 14:32:48;;;;;;;4.90;2.07;;;;;;;;;;5021321;28;20482;-73
2022/06/28 14:35:22;;;;;;;3.40;0.90;;;;;;;;;;5023225;28;20526;-72
2022/06/28 14:37:52;;;;;;;3.70;1.23;;;;;;;;;;5028750;28;20499;-71
2022/06/28 14:40:20;;;;;;;2.20;0.97;;;;;;;;;;5016389;28;20511;-72
2022/06/28 14:42:49;;;;;;;2.63;1.23;;;;;;;;;;5017842;28;21002;-71
2022/06/28 14:45:18;;;;;;;3.10;1.83;;;;;;;;;;5026432;28;20822;-72
2022/06/28 14:47:49;;;;;;;4.07;1.57;;;;;;;;;;5025680;28;20485;-72
2022/06/28 14:50:17;;;;;;;2.20;1.30;;;;;;;;;;5031133;28;20465;-71
2022/06/28 14:52:47;;;;;;;4.80;1.47;;;;;;;;;;5022503;28;20467;-71
2022/06/28 14:55:17;;;;;;;3.00;1.03;;;;;;;;;;5018000;28;20454;-72
2022/06/28 14:57:45;;;;;;;4.47;1.27;;;;;;;;;;5031301;28;21043;-74
2022/06/28 15:00:15;;;;;;;1.93;0.83;;;;;;;;;;5022581;28;20516;-72
2022/06/28 15:02:46;;;;;;;3.40;1.77;;;;;;;;;;5028975;27;20459;-72
2022/06/28 15:05:19;;;;;;;4.43;3.00;;;;;;;;;;5030059;28;20704;-73
2022/06/28 15:07:52;;;;;;;2.60;1.00;;;;;;;;;;5029271;28;21067;-73
2022/06/28 15:10:21;;;;;;;3.10;1.17;;;;;;;;;;5029297;28;20515;-72
2022/06/28 15:12:49;;;;;;;3.03;1.20;;;;;;;;;;5028627;28;20796;-72
2022/06/28 15:15:17;;;;;;;2.70;1.20;;;;;;;;;;5028358;28;20454;-72
2022/06/28 15:17:44;;;;;;;2.00;1.20;;;;;;;;;;5023146;28;20458;-73
2022/06/28 15:20:13;;;;;;;2.90;1.30;;;;;;;;;;5018505;28;20467;-72